Time;durP1;ratioP1;P1;durP2;ratioP2;P2;SDS_P1;SDS_P2;PMS_P1;PMS_P2;Temp;Humidity;BMP_temperature;BMP_pressure;BME280_temperature;BME280_humidity;BME280_pressure;Samples;Min_cycle;Max_cycle;Signal;HPM_P1;HPM_P2
2021/12/28 00:01:37;;;;;;;10.32;4.82;;;;;;;11.94;63.80;99443.91;4949640;28;114212;-69
2021/12/28 00:04:05;;;;;;;9.65;5.07;;;;;;;11.90;64.01;99443.28;4949996;28;114407;-69
2021/12/28 00:06:32;;;;;;;9.93;4.82;;;;;;;11.86;63.90;99437.31;4931921;28;122784;-69
2021/12/28 00:09:00;;;;;;;9.35;4.38;;;;;;;11.83;63.92;99432.25;4949522;28;124505;-69
2021/12/28 00:11:27;;;;;;;9.82;4.60;;;;;;;11.79;63.90;99430.78;4949732;28;114409;-69
2021/12/28 00:14:00;;;;;;;10.40;4.70;;;;;;;11.76;63.86;99425.69;4932478;28;114123;-69
2021/12/28 00:16:34;;;;;;;12.95;4.80;;;;;;;11.72;63.86;99424.22;4945581;28;123919;-69
2021/12/28 00:19:02;;;;;;;10.70;4.18;;;;;;;11.68;63.73;99414.81;4947606;28;124718;-69
2021/12/28 00:21:30;;;;;;;9.38;4.82;;;;;;;11.65;63.77;99415.03;4951615;28;115150;-71
2021/12/28 00:23:58;;;;;;;9.35;4.43;;;;;;;11.62;63.86;99407.28;4953573;28;116007;-68
2021/12/28 00:26:27;;;;;;;11.57;4.78;;;;;;;11.60;63.73;99427.75;4953719;28;123409;-68
2021/12/28 00:28:54;;;;;;;9.23;4.72;;;;;;;11.55;63.88;99421.97;4935571;28;122906;-70
2021/12/28 00:31:23;;;;;;;11.45;4.20;;;;;;;11.52;63.68;99427.47;4935401;28;113483;-69
2021/12/28 00:33:52;;;;;;;11.02;4.60;;;;;;;11.48;63.69;99432.97;4934934;28;114651;-71
2021/12/28 00:36:19;;;;;;;11.48;5.07;;;;;;;11.43;63.83;99437.78;4935272;28;123868;-69
2021/12/28 00:38:47;;;;;;;10.35;4.85;;;;;;;11.41;64.02;99426.41;4952954;28;124754;-69
2021/12/28 00:41:14;;;;;;;11.23;4.80;;;;;;;11.38;63.94;99424.00;4952430;28;114855;-69
2021/12/28 00:43:42;;;;;;;13.93;4.75;;;;;;;11.36;64.05;99423.28;4952835;28;114879;-69
2021/12/28 00:46:09;;;;;;;9.60;4.80;;;;;;;11.34;63.86;99422.53;4950647;28;124697;-69
2021/12/28 00:48:37;;;;;;;11.15;4.78;;;;;;;11.31;64.24;99414.78;4952586;28;123914;-68
2021/12/28 00:51:05;;;;;;;13.63;5.22;;;;;;;11.28;63.84;99415.00;4952732;28;114077;-67
2021/12/28 00:53:32;;;;;;;8.85;4.40;;;;;;;11.26;63.94;99407.19;4935637;28;114844;-69
2021/12/28 00:56:00;;;;;;;11.18;4.90;;;;;;;11.22;63.87;99404.84;4952973;28;123770;-68
2021/12/28 00:58:28;;;;;;;10.73;4.80;;;;;;;11.20;63.90;99407.59;4935113;28;123822;-69
2021/12/28 01:00:55;;;;;;;12.63;4.68;;;;;;;11.18;63.73;99398.91;4934781;28;113356;-69
2021/12/28 01:03:23;;;;;;;9.93;4.45;;;;;;;11.16;64.08;99410.59;4935358;28;111942;-69
2021/12/28 01:05:51;;;;;;;8.10;3.88;;;;;;;11.14;64.08;99401.91;4951977;28;124345;-69
2021/12/28 01:08:18;;;;;;;11.55;4.07;;;;;;;11.11;64.17;99405.59;4950457;28;124045;-69
2021/12/28 01:10:56;;;;;;;11.27;3.75;;;;;;;11.09;64.05;99404.84;4951367;28;115042;-69
2021/12/28 01:13:23;;;;;;;9.55;3.90;;;;;;;11.09;63.94;99394.25;4950969;28;115586;-69
2021/12/28 01:15:51;;;;;;;9.32;3.80;;;;;;;11.07;64.12;99397.00;4951820;28;124706;-69
2021/12/28 01:18:19;;;;;;;14.27;3.92;;;;;;;11.06;64.19;99390.03;4951885;28;123976;-68
2021/12/28 01:20:47;;;;;;;12.48;3.78;;;;;;;11.05;64.04;99393.63;4951815;28;113998;-69
2021/12/28 01:23:14;;;;;;;9.55;4.13;;;;;;;11.03;63.88;99390.22;4950340;28;113192;-69
2021/12/28 01:25:41;;;;;;;12.10;3.88;;;;;;;11.03;64.00;99384.94;4934426;28;124576;-68
2021/12/28 01:28:09;;;;;;;10.65;3.55;;;;;;;11.02;64.13;99393.84;4951877;28;123933;-68
2021/12/28 01:30:40;;;;;;;10.02;4.18;;;;;;;11.00;64.19;99390.47;4934537;28;113010;-69
2021/12/28 01:33:08;;;;;;;13.80;3.75;;;;;;;10.99;64.26;99399.34;4950491;28;113643;-69
2021/12/28 01:35:36;;;;;;;10.43;3.50;;;;;;;10.98;64.04;99395.03;4933494;28;123942;-69
2021/12/28 01:38:03;;;;;;;8.57;3.90;;;;;;;10.96;64.16;99393.41;4951586;28;124574;-68
2021/12/28 01:40:35;;;;;;;10.93;3.72;;;;;;;10.94;64.04;99385.56;4951846;28;114106;-69
2021/12/28 01:43:11;;;;;;;8.35;3.63;;;;;;;10.92;64.21;99387.50;4932156;28;114038;-69
2021/12/28 01:45:48;;;;;;;10.48;3.75;;;;;;;10.90;64.04;99392.03;4951359;28;123979;-69
2021/12/28 01:48:18;;;;;;;10.93;3.70;;;;;;;10.88;64.10;99392.16;4948774;28;123803;-69
2021/12/28 01:50:47;;;;;;;11.73;3.45;;;;;;;10.87;64.38;99389.63;4951312;28;113874;-69
2021/12/28 01:53:15;;;;;;;12.13;3.83;;;;;;;10.87;64.13;99394.94;4951694;28;113976;-69
2021/12/28 01:55:44;;;;;;;9.18;3.50;;;;;;;10.86;64.33;99387.94;4933595;28;123298;-69
2021/12/28 01:58:12;;;;;;;12.73;3.47;;;;;;;10.87;64.07;99394.94;4934052;28;124928;-69
2021/12/28 02:00:42;;;;;;;12.35;3.33;;;;;;;10.86;64.21;99387.94;4933110;28;114876;-69
2021/12/28 02:03:12;;;;;;;12.30;3.58;;;;;;;10.86;64.29;99387.94;4949559;28;114470;-69
2021/12/28 02:05:41;;;;;;;11.52;3.40;;;;;;;10.86;64.39;99382.63;4932924;28;123904;-69
2021/12/28 02:08:10;;;;;;;11.23;3.33;;;;;;;10.86;64.12;99393.22;4949661;28;124278;-69
2021/12/28 02:10:37;;;;;;;10.93;3.28;;;;;;;10.86;64.21;99387.94;4932745;28;113331;-68
2021/12/28 02:13:06;;;;;;;11.15;3.42;;;;;;;10.86;64.19;99387.94;4950538;28;114671;-69
2021/12/28 02:15:35;;;;;;;12.43;3.60;;;;;;;10.85;64.14;99386.22;4933412;28;123023;-69
2021/12/28 02:18:05;;;;;;;10.15;3.40;;;;;;;10.85;64.23;99391.50;4933674;28;124089;-69
2021/12/28 02:20:33;;;;;;;9.38;3.75;;;;;;;10.84;64.38;99384.53;4933492;28;113719;-69
2021/12/28 02:23:00;;;;;;;8.85;3.28;;;;;;;10.84;64.43;99379.25;4950900;28;114434;-69
2021/12/28 02:25:27;;;;;;;8.57;3.20;;;;;;;10.84;64.23;99380.09;4950388;28;123926;-69
2021/12/28 02:27:54;;;;;;;13.80;3.53;;;;;;;10.84;64.41;99379.25;4950804;28;124009;-68
2021/12/28 02:30:21;;;;;;;16.58;3.78;;;;;;;10.84;64.33;99373.94;4933545;28;113370;-68
2021/12/28 02:32:50;;;;;;;8.77;3.28;;;;;;;10.82;64.34;99360.81;4933667;28;113745;-69
2021/12/28 02:35:20;;;;;;;12.40;3.15;;;;;;;10.82;64.30;99370.56;4950817;28;123735;-69
2021/12/28 02:37:48;;;;;;;10.75;3.33;;;;;;;10.82;64.34;99359.97;4932935;28;123263;-69
2021/12/28 02:40:18;;;;;;;11.73;3.00;;;;;;;10.80;64.18;99356.59;4950637;28;114300;-69
2021/12/28 02:42:46;;;;;;;11.50;3.78;;;;;;;10.80;64.28;99359.22;4951341;28;113666;-69
2021/12/28 02:45:26;;;;;;;8.93;3.08;;;;;;;10.79;64.20;99354.88;4948363;28;124296;-69
2021/12/28 02:47:55;;;;;;;11.65;3.50;;;;;;;10.80;64.28;99356.59;4934808;28;97265;-69
2021/12/28 02:50:26;;;;;;;13.82;3.28;;;;;;;10.81;64.42;99355.59;4931535;28;116039;-68
2021/12/28 02:52:54;;;;;;;11.20;3.67;;;;;;;10.81;64.32;99342.38;4933116;28;115413;-69
2021/12/28 02:55:25;;;;;;;7.80;2.90;;;;;;;10.83;64.38;99351.06;4933055;28;124569;-69
2021/12/28 02:57:55;;;;;;;11.15;3.13;;;;;;;10.84;64.47;99342.16;4949121;28;123861;-69
2021/12/28 03:00:44;;;;;;;14.10;3.38;;;;;;;10.85;64.36;99341.19;4950648;28;113814;-68
2021/12/28 03:03:14;;;;;;;8.45;3.15;;;;;;;10.87;64.40;99341.97;4950870;28;114443;-69
2021/12/28 03:05:44;;;;;;;8.65;2.65;;;;;;;10.89;64.62;99334.75;4933123;28;124411;-69
2021/12/28 03:08:12;;;;;;;8.40;3.10;;;;;;;10.91;64.44;99332.84;4932080;28;122791;-69
2021/12/28 03:10:40;;;;;;;13.43;3.42;;;;;;;10.93;64.55;99330.09;4950212;28;114830;-69
2021/12/28 03:13:13;;;;;;;11.23;2.95;;;;;;;10.95;64.48;99328.16;4931941;28;113780;-69
2021/12/28 03:15:40;;;;;;;14.23;3.47;;;;;;;10.96;64.62;99320.09;4931841;28;123291;-69
2021/12/28 03:18:08;;;;;;;9.50;2.53;;;;;;;10.98;64.62;99328.81;4950982;28;124271;-69
2021/12/28 03:20:36;;;;;;;8.73;3.10;;;;;;;10.99;64.55;99325.19;4950643;28;114918;-69
2021/12/28 03:23:04;;;;;;;14.25;3.42;;;;;;;11.01;64.49;99328.56;4950442;28;113848;-69
2021/12/28 03:25:32;;;;;;;9.82;2.95;;;;;;;11.05;64.49;99337.97;4950572;28;123096;-68
2021/12/28 03:28:00;;;;;;;7.75;2.83;;;;;;;11.06;64.60;99321.16;4950602;28;123417;-69
2021/12/28 03:30:27;;;;;;;9.88;3.28;;;;;;;11.09;64.38;99320.94;4949633;28;114834;-68
2021/12/28 03:32:55;;;;;;;14.73;3.03;;;;;;;11.10;64.33;99317.31;4933941;28;113223;-69
2021/12/28 03:35:22;;;;;;;11.05;2.85;;;;;;;11.12;64.41;99313.72;4950604;28;123846;-69
2021/12/28 03:37:49;;;;;;;9.70;2.90;;;;;;;11.13;64.36;99307.44;4932676;28;124292;-68
2021/12/28 03:40:16;;;;;;;9.25;3.00;;;;;;;11.13;64.26;99300.34;4949896;28;114291;-68
2021/12/28 03:42:44;;;;;;;12.02;3.20;;;;;;;11.14;64.20;99295.91;4933389;28;114868;-68
2021/12/28 03:45:13;;;;;;;11.48;2.85;;;;;;;11.15;64.45;99292.28;4932248;28;123277;-68
2021/12/28 03:47:41;;;;;;;10.82;3.30;;;;;;;11.14;64.27;99290.59;4949735;28;124459;-69
2021/12/28 03:50:10;;;;;;;12.50;2.72;;;;;;;11.15;64.32;99276.38;4949847;28;114533;-69
2021/12/28 03:52:39;;;;;;;14.35;3.08;;;;;;;11.14;64.30;99269.41;4949752;28;115007;-68
2021/12/28 03:55:09;;;;;;;12.65;3.20;;;;;;;11.14;64.07;99264.09;4932493;28;123404;-69
2021/12/28 03:57:39;;;;;;;9.82;2.88;;;;;;;11.13;64.32;99262.41;4954067;28;124588;-69
2021/12/28 04:00:09;;;;;;;14.15;3.10;;;;;;;11.13;64.41;99262.41;4953592;28;115358;-68
2021/12/28 04:02:36;;;;;;;11.73;3.17;;;;;;;11.12;64.28;99260.72;4936463;28;113645;-69
2021/12/28 04:05:04;;;;;;;10.65;3.35;;;;;;;11.12;64.21;99268.69;4954146;28;125679;-69
2021/12/28 04:07:31;;;;;;;9.25;3.00;;;;;;;11.12;64.29;99266.03;4954158;28;124378;-70
2021/12/28 04:10:01;;;;;;;14.02;3.08;;;;;;;11.10;64.00;99259.03;4953049;28;113399;-68
2021/12/28 04:12:29;;;;;;;12.77;3.05;;;;;;;11.10;64.48;99252.88;4953325;28;113732;-69
2021/12/28 04:14:58;;;;;;;12.30;2.50;;;;;;;11.10;64.08;99252.88;4936293;28;124838;-69
2021/12/28 04:17:27;;;;;;;10.32;3.00;;;;;;;11.10;64.14;99264.31;4936162;28;124322;-69
2021/12/28 04:19:55;;;;;;;9.70;3.03;;;;;;;11.09;64.18;99257.34;4966283;28;113572;-69
2021/12/28 04:22:22;;;;;;;12.50;2.88;;;;;;;11.10;64.32;99253.72;4951776;28;113679;-70
2021/12/28 04:24:49;;;;;;;9.38;2.60;;;;;;;11.10;64.38;99253.72;4949268;28;124235;-70
2021/12/28 04:27:22;;;;;;;12.55;2.90;;;;;;;11.13;64.41;99249.16;4949930;28;123621;-70
2021/12/28 04:29:49;;;;;;;14.55;3.20;;;;;;;11.14;64.35;99253.50;4952511;28;114989;-70
2021/12/28 04:32:16;;;;;;;9.77;3.03;;;;;;;11.15;64.46;99255.19;4952789;28;115039;-70
2021/12/28 04:34:48;;;;;;;13.55;2.78;;;;;;;11.17;64.45;99253.25;4951519;28;124732;-70
2021/12/28 04:37:15;;;;;;;10.38;2.85;;;;;;;11.19;64.54;99256.66;4951009;28;122989;-70
2021/12/28 04:39:42;;;;;;;12.50;3.20;;;;;;;11.20;64.62;99253.88;4949650;28;114269;-70
2021/12/28 04:42:10;;;;;;;13.63;2.90;;;;;;;11.23;64.38;99255.50;4951261;28;113521;-70
2021/12/28 04:44:37;;;;;;;14.40;2.75;;;;;;;11.26;64.53;99263.19;4952390;28;124022;-69
2021/12/28 04:47:04;;;;;;;9.50;2.50;;;;;;;11.29;64.58;99257.69;4952399;28;124815;-70
2021/12/28 04:49:31;;;;;;;8.60;2.50;;;;;;;11.31;64.62;99261.06;4951169;28;114206;-70
2021/12/28 04:51:59;;;;;;;13.38;2.72;;;;;;;11.33;64.39;99259.16;4950986;28;114253;-70
2021/12/28 04:54:26;;;;;;;13.02;2.65;;;;;;;11.35;64.59;99256.38;4950482;28;122128;-70
2021/12/28 04:56:53;;;;;;;7.85;2.40;;;;;;;11.38;64.62;99257.00;4950821;28;122795;-70
2021/12/28 04:59:20;;;;;;;9.65;2.17;;;;;;;11.40;64.54;99255.09;4952477;28;114100;-70
2021/12/28 05:01:48;;;;;;;9.95;2.80;;;;;;;11.44;64.88;99255.69;4952088;28;113753;-69
2021/12/28 05:04:15;;;;;;;10.27;2.83;;;;;;;11.45;64.71;99252.94;4951771;28;124770;-70
2021/12/28 05:06:42;;;;;;;15.00;2.63;;;;;;;11.47;64.87;99256.31;4950220;28;124056;-70
2021/12/28 05:09:11;;;;;;;15.45;2.83;;;;;;;11.49;64.68;99249.09;4951133;28;114128;-69
2021/12/28 05:11:39;;;;;;;9.45;2.28;;;;;;;11.53;64.62;99248.84;4952895;28;114233;-70
2021/12/28 05:14:08;;;;;;;12.52;2.28;;;;;;;11.55;64.73;99246.97;4951318;28;123799;-70
2021/12/28 05:16:35;;;;;;;11.57;2.30;;;;;;;11.56;64.61;99245.97;4950953;28;123141;-70
2021/12/28 05:19:05;;;;;;;12.15;2.38;;;;;;;11.58;64.67;99252.00;4952073;28;115790;-69
2021/12/28 05:21:32;;;;;;;12.50;2.38;;;;;;;11.59;64.57;99237.81;4952052;28;115623;-70
2021/12/28 05:24:00;;;;;;;14.35;2.25;;;;;;;11.61;64.59;99241.19;4950412;28;122906;-70
2021/12/28 05:26:27;;;;;;;11.82;2.50;;;;;;;11.63;64.88;99239.25;4951919;28;124608;-70
2021/12/28 05:28:55;;;;;;;9.23;2.10;;;;;;;11.64;64.62;99232.97;4951734;28;114251;-70
2021/12/28 05:31:25;;;;;;;8.02;1.90;;;;;;;11.65;64.62;99232.03;4951733;28;113649;-70
2021/12/28 05:33:53;;;;;;;8.98;2.33;;;;;;;11.65;64.67;99227.56;4951302;28;123873;-70
2021/12/28 05:36:22;;;;;;;12.38;2.63;;;;;;;11.68;64.70;99221.22;4950903;28;122856;-70
2021/12/28 05:38:49;;;;;;;11.05;2.90;;;;;;;11.70;64.65;99224.59;4934460;28;113445;-70
2021/12/28 05:41:16;;;;;;;9.23;2.45;;;;;;;11.72;64.67;99227.13;4950555;28;113157;-69
2021/12/28 05:43:43;;;;;;;8.60;2.40;;;;;;;11.74;64.48;99226.03;4950756;28;123780;-69
2021/12/28 05:46:10;;;;;;;10.70;2.72;;;;;;;11.75;64.63;99222.41;4950227;28;123807;-70
2021/12/28 05:48:37;;;;;;;8.82;2.28;;;;;;;11.75;64.48;99217.09;4950490;28;114351;-70
2021/12/28 05:51:04;;;;;;;12.38;2.53;;;;;;;11.76;64.38;99223.28;4951407;28;113989;-70
2021/12/28 05:53:31;;;;;;;13.25;2.55;;;;;;;11.75;64.41;99225.06;4950994;28;124380;-70
2021/12/28 05:55:58;;;;;;;11.35;2.20;;;;;;;11.75;64.55;99219.75;4933311;28;122998;-70
2021/12/28 05:58:26;;;;;;;14.48;3.08;;;;;;;11.76;64.57;99218.81;4950097;28;114186;-70
2021/12/28 06:00:53;;;;;;;10.02;2.38;;;;;;;11.77;64.64;99215.22;4951974;28;114183;-70
2021/12/28 06:03:20;;;;;;;10.15;2.33;;;;;;;11.77;64.52;99209.91;4950867;28;123969;-70
2021/12/28 06:05:47;;;;;;;10.80;2.38;;;;;;;11.78;64.53;99200.97;4949780;28;123723;-70
2021/12/28 06:08:14;;;;;;;9.15;2.17;;;;;;;11.77;64.46;99194.00;4950672;28;114552;-69
2021/12/28 06:10:58;;;;;;;7.93;2.03;;;;;;;11.78;64.57;99195.66;4946960;28;115391;-70
2021/12/28 06:13:26;;;;;;;11.48;2.15;;;;;;;11.78;64.40;99195.66;4949171;28;124799;-70
2021/12/28 06:15:53;;;;;;;11.95;2.67;;;;;;;11.77;64.46;99199.28;4932947;28;123530;-69
2021/12/28 06:18:21;;;;;;;10.15;2.20;;;;;;;11.77;64.25;99199.28;4950998;28;114058;-70
2021/12/28 06:20:48;;;;;;;13.07;2.35;;;;;;;11.77;64.57;99194.00;4950937;28;114373;-70
2021/12/28 06:23:17;;;;;;;9.65;2.13;;;;;;;11.78;64.48;99200.97;4950666;28;124506;-70
2021/12/28 06:25:44;;;;;;;12.75;2.30;;;;;;;11.78;64.63;99194.81;4951343;28;123987;-70
2021/12/28 06:28:11;;;;;;;6.93;1.90;;;;;;;11.80;64.71;99190.25;4951392;28;114590;-70
2021/12/28 06:30:38;;;;;;;6.85;1.88;;;;;;;11.80;64.43;99185.78;4949908;28;113912;-70
2021/12/28 06:33:05;;;;;;;10.57;2.47;;;;;;;11.82;64.55;99186.50;4950290;28;124378;-69
2021/12/28 06:35:32;;;;;;;11.27;2.22;;;;;;;11.83;64.48;99193.50;4950454;28;123842;-69
2021/12/28 06:38:00;;;;;;;8.82;2.17;;;;;;;11.84;64.71;99184.56;4951067;28;114698;-70
2021/12/28 06:40:27;;;;;;;9.07;2.08;;;;;;;11.86;64.62;99198.56;4951053;28;113937;-70
2021/12/28 06:42:54;;;;;;;9.55;2.35;;;;;;;11.86;64.61;99193.25;4933708;28;124313;-70
2021/12/28 06:45:22;;;;;;;8.57;2.10;;;;;;;11.87;64.80;99184.34;4951164;28;123579;-69
2021/12/28 06:47:49;;;;;;;10.98;2.15;;;;;;;11.90;64.73;99195.72;4950954;28;114429;-69
2021/12/28 06:50:16;;;;;;;13.32;2.35;;;;;;;11.90;64.55;99187.75;4951005;28;114487;-69
2021/12/28 06:52:43;;;;;;;7.88;1.95;;;;;;;11.91;64.55;99192.94;4950399;28;124207;-70
2021/12/28 06:55:11;;;;;;;9.07;1.95;;;;;;;11.92;64.76;99185.81;4949271;28;123884;-70
2021/12/28 06:57:38;;;;;;;6.50;2.10;;;;;;;11.95;64.97;99175.00;4950298;28;114953;-69
2021/12/28 07:00:10;;;;;;;10.65;2.30;;;;;;;11.96;64.60;99176.66;4948832;28;113790;-70
2021/12/28 07:02:38;;;;;;;9.63;2.08;;;;;;;11.97;64.74;99178.38;4950146;28;123904;-70
2021/12/28 07:05:07;;;;;;;7.82;1.77;;;;;;;12.00;64.70;99172.84;4949037;28;124441;-70
2021/12/28 07:07:34;;;;;;;8.00;2.10;;;;;;;12.00;64.67;99156.91;4950870;28;114630;-70
2021/12/28 07:10:04;;;;;;;8.00;2.13;;;;;;;12.00;64.76;99151.59;4950545;28;114829;-70
2021/12/28 07:12:31;;;;;;;7.88;1.50;;;;;;;12.02;64.67;99154.97;4948277;28;123719;-70
2021/12/28 07:14:58;;;;;;;8.43;1.88;;;;;;;12.03;64.74;99159.31;4948373;28;122746;-70
2021/12/28 07:17:27;;;;;;;8.23;2.17;;;;;;;12.04;64.71;99153.03;4950433;28;114093;-70
2021/12/28 07:19:54;;;;;;;7.45;2.00;;;;;;;12.05;64.84;99155.59;4948859;28;113883;-69
2021/12/28 07:22:21;;;;;;;7.32;2.00;;;;;;;12.07;64.64;99147.47;4949275;28;124669;-70
2021/12/28 07:24:49;;;;;;;6.13;1.98;;;;;;;12.09;64.47;99156.16;4948421;28;122889;-69
2021/12/28 07:27:16;;;;;;;6.50;1.65;;;;;;;12.10;64.83;99152.56;4933213;28;114948;-70
2021/12/28 07:29:43;;;;;;;6.40;1.85;;;;;;;12.11;64.89;99154.25;4932280;28;112691;-70
2021/12/28 07:32:10;;;;;;;5.78;1.92;;;;;;;12.11;64.64;99148.97;4948146;28;124583;-69
2021/12/28 07:34:37;;;;;;;8.27;1.77;;;;;;;12.14;64.73;99148.69;4944869;28;124154;-69
2021/12/28 07:37:04;;;;;;;9.80;2.15;;;;;;;12.15;64.75;99161.00;4949364;28;114387;-69
2021/12/28 07:39:31;;;;;;;8.52;2.03;;;;;;;12.17;64.87;99158.25;4946726;28;113650;-69
2021/12/28 07:41:58;;;;;;;7.40;1.80;;;;;;;12.19;64.96;99167.75;4945596;28;124029;-70
2021/12/28 07:44:26;;;;;;;4.95;1.58;;;;;;;12.21;64.74;99159.69;4947698;28;124115;-70
2021/12/28 07:46:53;;;;;;;5.97;1.92;;;;;;;12.23;64.85;99158.59;4946789;28;115053;-69
2021/12/28 07:49:21;;;;;;;4.50;1.55;;;;;;;12.25;64.74;99156.66;4947874;28;114800;-70
2021/12/28 07:51:49;;;;;;;8.82;2.25;;;;;;;12.27;64.81;99154.72;4948261;28;123498;-70
2021/12/28 07:54:16;;;;;;;9.68;1.95;;;;;;;12.29;64.72;99156.41;4948451;28;124333;-70
2021/12/28 07:56:43;;;;;;;9.05;1.90;;;;;;;12.30;64.71;99158.09;4947688;28;115194;-70
2021/12/28 07:59:11;;;;;;;5.70;1.58;;;;;;;12.31;64.74;99150.00;4947705;28;113780;-70
2021/12/28 08:01:38;;;;;;;6.93;2.08;;;;;;;12.33;64.71;99147.25;4948878;28;124733;-70
2021/12/28 08:04:06;;;;;;;8.70;2.28;;;;;;;12.34;64.72;99146.25;4949607;28;124279;-69
2021/12/28 08:06:33;;;;;;;6.40;1.75;;;;;;;12.34;64.66;99139.16;4948346;28;114625;-70
2021/12/28 08:09:00;;;;;;;7.07;1.90;;;;;;;12.36;64.78;99141.69;4947818;28;112887;-70
2021/12/28 08:11:28;;;;;;;3.97;1.50;;;;;;;12.37;64.66;99154.00;4947145;28;122996;-70
2021/12/28 08:13:55;;;;;;;10.45;1.77;;;;;;;12.38;64.85;99150.38;4948884;28;124336;-69
2021/12/28 08:16:22;;;;;;;7.53;1.77;;;;;;;12.39;64.57;99146.75;4949773;28;114796;-70
2021/12/28 08:18:50;;;;;;;4.72;1.55;;;;;;;12.40;64.38;99148.44;4949642;28;113623;-68
2021/12/28 08:21:37;;;;;;;8.23;1.90;;;;;;;12.41;64.68;99150.13;4944880;28;123650;-70
2021/12/28 08:24:04;;;;;;;5.82;1.90;;;;;;;12.41;64.95;99145.69;4948114;28;123557;-70
2021/12/28 08:26:32;;;;;;;5.68;1.77;;;;;;;12.43;64.73;99153.50;4947911;28;113354;-70
2021/12/28 08:28:59;;;;;;;4.20;1.77;;;;;;;12.44;64.71;99144.56;4948607;28;112873;-69
2021/12/28 08:31:26;;;;;;;6.22;2.10;;;;;;;12.45;64.66;99135.63;4949077;28;124258;-70
2021/12/28 08:33:53;;;;;;;6.00;1.83;;;;;;;12.46;64.98;99132.00;4948043;28;123305;-68
2021/12/28 08:36:21;;;;;;;6.85;1.60;;;;;;;12.47;64.93;99133.72;4948793;28;116716;-68
2021/12/28 08:38:48;;;;;;;6.90;1.77;;;;;;;12.48;64.81;99146.00;4949857;28;114884;-70
2021/12/28 08:41:17;;;;;;;5.82;1.60;;;;;;;12.49;64.63;99126.47;4949079;28;123875;-69
2021/12/28 08:43:46;;;;;;;4.68;1.70;;;;;;;12.50;64.88;99133.44;4951973;28;124524;-69
2021/12/28 08:46:14;;;;;;;4.82;1.45;;;;;;;12.52;64.80;99126.19;4951592;28;114709;-70
2021/12/28 08:48:42;;;;;;;4.35;1.50;;;;;;;12.54;65.00;99118.13;4935344;28;114164;-70
2021/12/28 08:51:09;;;;;;;4.93;1.45;;;;;;;12.55;64.97;99120.66;4952076;28;123708;-70
2021/12/28 08:53:36;;;;;;;3.20;1.35;;;;;;;12.59;65.19;99126.56;4935169;28;123604;-71
2021/12/28 08:56:04;;;;;;;5.72;1.55;;;;;;;12.60;65.06;99118.47;4951450;28;115127;-71
2021/12/28 08:58:31;;;;;;;3.53;1.63;;;;;;;12.62;65.04;99113.88;4935046;28;114181;-70
2021/12/28 09:00:58;;;;;;;3.35;1.30;;;;;;;12.65;65.09;99121.59;4951668;28;123356;-70
2021/12/28 09:03:26;;;;;;;5.35;1.40;;;;;;;12.68;65.14;99122.28;4952168;28;124198;-70
2021/12/28 09:05:53;;;;;;;3.40;1.23;;;;;;;12.70;65.09;99117.72;4952539;28;114036;-69
2021/12/28 09:08:20;;;;;;;4.43;1.30;;;;;;;12.71;65.20;99119.41;4952299;28;114197;-70
2021/12/28 09:10:48;;;;;;;2.88;1.23;;;;;;;12.72;65.30;99115.78;4950429;28;123459;-70
2021/12/28 09:13:17;;;;;;;4.38;1.33;;;;;;;12.75;65.30;99110.22;4951501;28;124460;-69
2021/12/28 09:15:46;;;;;;;2.90;1.35;;;;;;;12.75;65.17;99108.41;4949445;28;114531;-70
2021/12/28 09:18:13;;;;;;;3.45;1.30;;;;;;;12.77;65.32;99109.13;4952577;28;113757;-70
2021/12/28 09:20:40;;;;;;;7.30;1.60;;;;;;;12.80;65.26;99110.69;4951534;28;125067;-70
2021/12/28 09:23:09;;;;;;;4.75;1.48;;;;;;;12.81;65.48;99104.41;4949827;28;123119;-70
2021/12/28 09:25:37;;;;;;;2.35;1.42;;;;;;;12.83;65.53;99102.47;4951565;28;115458;-70
2021/12/28 09:28:04;;;;;;;2.58;1.20;;;;;;;12.85;65.42;99100.53;4950776;28;115145;-70
2021/12/28 09:30:32;;;;;;;3.05;1.60;;;;;;;12.89;65.30;99099.31;4934030;28;123262;-71
2021/12/28 09:32:59;;;;;;;2.85;1.48;;;;;;;12.91;65.27;99099.19;4950010;28;123576;-70
2021/12/28 09:35:26;;;;;;;3.80;1.50;;;;;;;12.93;65.35;99102.53;4952126;28;114409;-70
2021/12/28 09:37:53;;;;;;;4.35;1.40;;;;;;;12.95;65.35;99096.13;4934575;28;113692;-70
2021/12/28 09:40:21;;;;;;;2.22;1.17;;;;;;;12.97;65.46;99094.19;4934056;28;124571;-70
2021/12/28 09:42:48;;;;;;;4.30;1.73;;;;;;;13.00;65.37;99091.28;4951921;28;124215;-70
2021/12/28 09:45:15;;;;;;;2.58;1.38;;;;;;;13.03;65.50;99093.69;4951997;28;114583;-70
2021/12/28 09:47:43;;;;;;;2.10;1.40;;;;;;;13.07;65.53;99093.41;4934164;28;113074;-70
2021/12/28 09:50:15;;;;;;;2.35;1.52;;;;;;;13.08;65.52;99089.81;4950711;28;124795;-70
2021/12/28 09:52:45;;;;;;;2.33;1.38;;;;;;;13.11;65.50;99084.22;4948647;28;125113;-70
2021/12/28 09:55:15;;;;;;;2.53;1.20;;;;;;;13.13;65.63;99085.78;4951607;28;114006;-70
2021/12/28 09:57:43;;;;;;;3.72;1.52;;;;;;;13.17;65.66;99078.41;4951939;28;114499;-70
2021/12/28 10:00:11;;;;;;;2.58;1.27;;;;;;;13.20;65.67;99083.44;4949650;28;123467;-70
2021/12/28 10:02:38;;;;;;;2.85;1.40;;;;;;;13.24;65.59;99074.22;4951265;28;123659;-70
2021/12/28 10:05:09;;;;;;;2.70;1.33;;;;;;;13.27;65.69;99073.13;4951730;28;115001;-70
2021/12/28 10:07:44;;;;;;;3.00;1.35;;;;;;;13.30;65.76;99063.13;4951802;28;114443;-70
2021/12/28 10:10:11;;;;;;;3.05;1.60;;;;;;;13.32;65.61;99071.81;4951366;28;125179;-70
2021/12/28 10:12:45;;;;;;;2.00;1.23;;;;;;;13.35;65.73;99066.22;4949754;28;122806;-70
2021/12/28 10:15:19;;;;;;;3.05;1.60;;;;;;;13.41;65.64;99060.41;4953527;28;112841;-69
2021/12/28 10:17:49;;;;;;;3.58;1.70;;;;;;;13.44;65.62;99054.78;4950428;28;114642;-70
2021/12/28 10:20:23;;;;;;;4.38;1.75;;;;;;;13.46;65.61;99046.69;4956643;28;126067;-70
2021/12/28 10:22:59;;;;;;;2.72;1.60;;;;;;;13.49;65.70;99035.78;4938142;28;124198;-69
2021/12/28 10:25:30;;;;;;;2.40;1.45;;;;;;;13.52;65.52;99034.69;4953128;28;113963;-69
2021/12/28 10:28:01;;;;;;;4.18;1.45;;;;;;;13.54;65.59;99022.09;4950990;28;112071;-70
2021/12/28 10:30:46;;;;;;;3.42;1.50;;;;;;;13.56;65.71;99026.31;4932439;28;123623;-70
2021/12/28 10:33:16;;;;;;;2.05;1.55;;;;;;;13.59;65.60;99019.88;4949553;28;122734;-70
2021/12/28 10:36:00;;;;;;;2.95;1.60;;;;;;;13.60;65.47;99021.56;4949674;28;113988;-70
2021/12/28 10:38:33;;;;;;;2.30;1.50;;;;;;;13.63;65.70;99015.97;4950075;28;113506;-69
2021/12/28 10:41:07;;;;;;;3.00;1.60;;;;;;;13.66;65.70;99005.06;4932477;28;124119;-70
2021/12/28 10:43:37;;;;;;;3.17;1.58;;;;;;;13.70;65.57;99000.34;4949389;28;123950;-70
2021/12/28 10:46:08;;;;;;;2.08;1.42;;;;;;;13.72;65.59;98993.88;4951105;28;114403;-70
2021/12/28 10:48:40;;;;;;;2.08;1.40;;;;;;;13.73;65.51;98995.59;4933827;28;113520;-70
2021/12/28 10:51:12;;;;;;;4.18;1.70;;;;;;;13.74;65.51;98991.94;4932737;28;123998;-70
2021/12/28 10:54:02;;;;;;;2.55;1.50;;;;;;;13.76;65.53;98982.00;4949197;28;124121;-69
2021/12/28 10:56:32;;;;;;;2.38;1.50;;;;;;;13.80;65.58;98982.56;4949016;28;114059;-70
2021/12/28 10:58:59;;;;;;;1.83;1.30;;;;;;;13.82;65.45;98976.16;4950278;28;113818;-70
2021/12/28 11:01:32;;;;;;;4.13;1.50;;;;;;;13.85;65.46;98971.53;4950243;28;123773;-70
2021/12/28 11:04:08;;;;;;;1.48;1.30;;;;;;;13.89;65.47;98972.94;4948506;28;123234;-70
2021/12/28 11:06:38;;;;;;;2.80;1.60;;;;;;;13.91;65.63;98970.97;4945573;28;115559;-70
2021/12/28 11:09:11;;;;;;;2.35;1.25;;;;;;;13.94;65.41;98965.41;4949775;28;114373;-70
2021/12/28 11:11:40;;;;;;;2.33;1.40;;;;;;;13.97;65.34;98965.09;4947776;28;124217;-70
2021/12/28 11:14:14;;;;;;;2.80;1.45;;;;;;;14.00;65.34;98964.84;4950079;28;124066;-70
2021/12/28 11:16:47;;;;;;;2.95;1.35;;;;;;;14.02;65.41;98957.56;4948938;28;113247;-70
2021/12/28 11:19:23;;;;;;;2.72;1.20;;;;;;;14.05;65.55;98957.25;4947618;28;114431;-70
2021/12/28 11:21:53;;;;;;;2.75;1.10;;;;;;;14.08;65.26;98959.66;4946925;28;124733;-70
2021/12/28 11:24:20;;;;;;;2.58;1.27;;;;;;;14.11;65.41;98940.75;4950154;28;124922;-70
2021/12/28 11:26:50;;;;;;;2.90;1.25;;;;;;;14.12;64.98;98937.09;4950757;28;114967;-70
2021/12/28 11:29:22;;;;;;;2.60;1.20;;;;;;;14.14;65.21;98935.13;4950514;28;113775;-70